createdAt,value
2022-09-17T00:00:47.980Z,0.20
2022-09-17T00:03:14.984Z,0.47
2022-09-17T00:05:41.684Z,0.25
2022-09-17T00:08:11.914Z,0.20
2022-09-17T00:10:41.751Z,0.30
2022-09-17T00:13:09.304Z,0.40
2022-09-17T00:15:44.542Z,0.20
2022-09-17T00:18:12.416Z,0.40
2022-09-17T00:20:43.863Z,0.28
2022-09-17T00:23:11.567Z,0.30
2022-09-17T00:25:42.790Z,0.40
2022-09-17T00:28:10.501Z,0.20
2022-09-17T00:30:40.955Z,0.40
2022-09-17T00:33:07.958Z,0.50
2022-09-17T00:35:34.682Z,0.40
2022-09-17T00:38:01.308Z,0.30
2022-09-17T00:40:27.984Z,0.40
2022-09-17T00:42:54.592Z,0.50
2022-09-17T00:45:23.043Z,0.40
2022-09-17T00:47:53.375Z,0.35
2022-09-17T00:50:41.650Z,0.45
2022-09-17T00:53:12.472Z,0.40
2022-09-17T00:56:16.864Z,0.20
2022-09-17T00:58:43.506Z,0.40
2022-09-17T01:01:10.118Z,0.10
2022-09-17T01:03:37.124Z,0.20
2022-09-17T01:06:48.749Z,0.32
2022-09-17T01:09:33.466Z,0.20
2022-09-17T01:12:09.121Z,0.40
2022-09-17T01:14:45.667Z,0.20
2022-09-17T01:17:24.665Z,0.30
2022-09-17T01:20:06.373Z,0.40
2022-09-17T01:22:46.713Z,0.38
2022-09-17T01:25:25.590Z,0.35
2022-09-17T01:27:58.176Z,0.40
2022-09-17T01:30:44.088Z,0.25
2022-09-17T01:33:44.403Z,0.35
2022-09-17T01:36:43.082Z,0.30
2022-09-17T01:39:24.747Z,0.30
2022-09-17T01:41:56.567Z,0.30
2022-09-17T01:44:41.674Z,0.20
2022-09-17T01:47:12.468Z,0.65
2022-09-17T01:49:39.748Z,0.40
2022-09-17T01:52:10.689Z,0.20
2022-09-17T01:54:51.316Z,0.20
2022-09-17T01:57:33.793Z,0.30
2022-09-17T02:00:13.635Z,0.30
2022-09-17T02:02:49.050Z,0.50
2022-09-17T02:05:42.034Z,0.30
2022-09-17T02:08:14.365Z,0.35
2022-09-17T02:10:47.906Z,0.45
2022-09-17T02:13:22.645Z,0.30
2022-09-17T02:15:57.429Z,0.32
2022-09-17T02:19:06.499Z,0.43
2022-09-17T02:21:47.547Z,0.30
2022-09-17T02:24:23.470Z,0.20
2022-09-17T02:27:28.395Z,0.20
2022-09-17T02:29:55.212Z,0.40
2022-09-17T02:32:21.853Z,0.20
2022-09-17T02:34:48.452Z,0.20
2022-09-17T02:37:15.276Z,0.28
2022-09-17T02:39:42.478Z,0.40
2022-09-17T02:42:09.034Z,0.40
2022-09-17T02:44:50.592Z,0.50
2022-09-17T02:47:25.360Z,0.30
2022-09-17T02:50:06.887Z,0.35
2022-09-17T02:52:44.466Z,0.38
2022-09-17T02:55:32.006Z,0.40
2022-09-17T02:58:29.840Z,0.38
2022-09-17T03:01:02.909Z,0.30
2022-09-17T03:03:35.641Z,0.40
2022-09-17T03:06:02.872Z,0.30
2022-09-17T03:08:32.997Z,0.30
2022-09-17T03:10:59.755Z,0.50
2022-09-17T03:13:26.477Z,0.60
2022-09-17T03:15:53.045Z,0.43
2022-09-17T03:18:19.659Z,0.30
2022-09-17T03:20:46.572Z,0.47
2022-09-17T03:23:13.095Z,0.40
2022-09-17T03:25:39.674Z,0.50
2022-09-17T03:28:06.201Z,0.40
2022-09-17T03:30:32.800Z,0.57
2022-09-17T03:32:59.338Z,0.47
2022-09-17T03:35:25.859Z,0.52
2022-09-17T03:37:52.404Z,0.50
2022-09-17T03:40:20.068Z,0.35
2022-09-17T03:42:46.640Z,0.35
2022-09-17T03:45:13.331Z,0.30
2022-09-17T03:47:39.844Z,0.50
2022-09-17T03:50:06.970Z,0.50
2022-09-17T03:52:33.508Z,0.40
2022-09-17T03:55:00.000Z,0.75
2022-09-17T03:57:26.615Z,0.60
2022-09-17T03:59:53.150Z,0.50
2022-09-17T04:02:19.830Z,0.60
2022-09-17T04:04:46.605Z,0.40
2022-09-17T04:07:13.090Z,1.23
2022-09-17T04:09:39.585Z,0.30
2022-09-17T04:12:06.291Z,0.38
2022-09-17T04:14:32.794Z,0.50
2022-09-17T04:16:59.389Z,0.60
2022-09-17T04:19:25.926Z,0.50
2022-09-17T04:21:53.120Z,0.30
2022-09-17T04:24:19.745Z,0.40
2022-09-17T04:26:46.323Z,0.28
2022-09-17T04:29:12.857Z,0.50
2022-09-17T04:31:39.498Z,0.35
2022-09-17T04:34:06.229Z,0.30
2022-09-17T04:36:32.731Z,0.50
2022-09-17T04:38:59.262Z,0.50
2022-09-17T04:41:25.778Z,0.65
2022-09-17T04:43:52.314Z,0.40
2022-09-17T04:46:18.995Z,0.52
2022-09-17T04:48:45.650Z,0.63
2022-09-17T04:51:12.218Z,0.30
2022-09-17T04:53:38.736Z,0.22
2022-09-17T04:56:05.618Z,0.40
2022-09-17T04:58:33.060Z,0.50
2022-09-17T05:00:59.881Z,0.50
2022-09-17T05:03:26.555Z,0.30
2022-09-17T05:05:53.165Z,0.75
2022-09-17T05:08:19.752Z,0.77
2022-09-17T05:10:46.311Z,0.73
2022-09-17T05:13:12.860Z,0.80
2022-09-17T05:15:39.400Z,0.95
2022-09-17T05:18:05.979Z,0.60
2022-09-17T05:20:32.495Z,0.70
2022-09-17T05:22:59.109Z,0.60
2022-09-17T05:25:25.694Z,0.43
2022-09-17T05:27:53.419Z,0.40
2022-09-17T05:30:20.477Z,0.43
2022-09-17T05:32:47.274Z,0.55
2022-09-17T05:35:14.090Z,0.73
2022-09-17T05:37:41.070Z,0.38
2022-09-17T05:40:08.850Z,0.70
2022-09-17T05:42:35.779Z,0.45
2022-09-17T05:45:02.345Z,0.50
2022-09-17T05:47:28.881Z,0.30
2022-09-17T05:49:55.396Z,0.40
2022-09-17T05:52:21.917Z,0.40
2022-09-17T05:54:48.707Z,0.40
2022-09-17T05:57:16.053Z,0.20
2022-09-17T05:59:42.618Z,0.63
2022-09-17T06:02:13.685Z,0.20
2022-09-17T06:04:40.475Z,0.57
2022-09-17T06:07:08.536Z,0.50
2022-09-17T06:09:37.499Z,0.38
2022-09-17T06:12:05.178Z,0.30
2022-09-17T06:14:31.711Z,0.25
2022-09-17T06:16:58.379Z,0.38
2022-09-17T06:19:24.923Z,0.20
2022-09-17T06:21:51.486Z,0.43
2022-09-17T06:24:18.001Z,0.50
2022-09-17T06:26:44.587Z,0.40
2022-09-17T06:29:11.162Z,0.43
2022-09-17T06:31:39.138Z,0.50
2022-09-17T06:34:05.695Z,0.45
2022-09-17T06:36:32.202Z,0.30
2022-09-17T06:38:58.834Z,0.32
2022-09-17T06:41:25.411Z,0.30
2022-09-17T06:43:54.710Z,0.60
2022-09-17T06:46:21.426Z,0.40
2022-09-17T06:48:47.985Z,0.40
2022-09-17T06:51:14.875Z,0.95
2022-09-17T06:53:41.733Z,0.40
2022-09-17T06:56:09.123Z,0.35
2022-09-17T06:58:41.895Z,0.52
2022-09-17T07:01:10.402Z,0.35
2022-09-17T07:03:37.435Z,0.35
2022-09-17T07:06:05.163Z,0.52
2022-09-17T07:08:34.809Z,0.38
2022-09-17T07:11:01.481Z,0.50
2022-09-17T07:13:28.388Z,0.70
2022-09-17T07:15:57.999Z,0.20
2022-09-17T07:18:24.981Z,0.50
2022-09-17T07:20:56.205Z,0.30
2022-09-17T07:23:27.897Z,0.20
2022-09-17T07:26:00.828Z,0.50
2022-09-17T07:28:28.856Z,0.43
2022-09-17T07:30:55.889Z,1.05
2022-09-17T07:33:25.412Z,0.47
2022-09-17T07:36:02.060Z,0.47
2022-09-17T07:38:29.775Z,0.38
2022-09-17T07:41:09.622Z,0.47
2022-09-17T07:43:36.606Z,0.43
2022-09-17T07:46:05.487Z,0.50
2022-09-17T07:48:32.215Z,0.50
2022-09-17T07:50:59.016Z,0.38
2022-09-17T07:53:26.001Z,0.65
2022-09-17T07:55:57.534Z,0.65
2022-09-17T07:58:29.824Z,0.60
2022-09-17T08:01:04.394Z,0.50
2022-09-17T08:03:31.479Z,0.77
2022-09-17T08:06:03.954Z,0.88
2022-09-17T08:08:33.524Z,0.50
2022-09-17T08:11:05.026Z,0.77
2022-09-17T08:13:31.918Z,0.68
2022-09-17T08:16:06.635Z,0.20
2022-09-17T08:18:33.549Z,0.30
2022-09-17T08:21:01.300Z,0.43
2022-09-17T08:23:28.831Z,0.38
2022-09-17T08:25:56.964Z,0.50
2022-09-17T08:28:25.526Z,0.40
2022-09-17T08:30:53.423Z,0.30
2022-09-17T08:33:21.508Z,0.55
2022-09-17T08:35:53.513Z,0.45
2022-09-17T08:38:21.240Z,0.70
2022-09-17T08:40:55.615Z,0.50
2022-09-17T08:43:23.171Z,0.57
2022-09-17T08:45:55.663Z,0.40
2022-09-17T08:48:25.019Z,0.40
2022-09-17T08:50:52.056Z,0.80
2022-09-17T08:53:25.101Z,0.55
2022-09-17T08:55:54.828Z,0.52
2022-09-17T08:58:32.147Z,0.65
2022-09-17T09:01:16.054Z,0.35
2022-09-17T09:04:12.013Z,0.50
2022-09-17T09:06:49.341Z,0.40
2022-09-17T09:09:18.479Z,0.47
2022-09-17T09:11:47.025Z,0.40
2022-09-17T09:14:21.435Z,0.70
2022-09-17T09:16:49.666Z,0.60
2022-09-17T09:19:28.343Z,0.47
2022-09-17T09:22:09.933Z,0.25
2022-09-17T09:24:41.615Z,0.20
2022-09-17T09:27:32.888Z,0.30
2022-09-17T09:30:04.108Z,0.47
2022-09-17T09:33:00.540Z,0.50
2022-09-17T09:35:33.567Z,0.60
2022-09-17T09:38:18.470Z,0.40
2022-09-17T09:40:53.491Z,0.40
2022-09-17T09:43:36.478Z,1.35
2022-09-17T09:46:45.114Z,0.50
2022-09-17T09:49:45.134Z,0.47
2022-09-17T09:52:43.068Z,0.50
2022-09-17T09:55:34.584Z,0.38
2022-09-17T09:58:25.783Z,0.63
2022-09-17T10:00:52.391Z,0.40
2022-09-17T10:03:28.084Z,0.30
2022-09-17T10:05:58.603Z,0.60
2022-09-17T10:08:26.252Z,0.55
2022-09-17T10:10:59.716Z,0.35
2022-09-17T10:13:27.799Z,0.30
2022-09-17T10:15:54.688Z,0.30
2022-09-17T10:18:23.449Z,0.30
2022-09-17T10:21:01.255Z,0.30
2022-09-17T10:23:36.673Z,0.28
2022-09-17T10:26:03.750Z,0.40
2022-09-17T10:29:03.880Z,0.30
2022-09-17T10:31:56.383Z,0.40
2022-09-17T10:34:33.185Z,0.40
2022-09-17T10:36:59.939Z,0.75
2022-09-17T10:39:38.616Z,0.50
2022-09-17T10:42:05.181Z,0.43
2022-09-17T10:44:34.781Z,0.20
2022-09-17T10:47:04.706Z,0.30
2022-09-17T10:49:44.720Z,0.38
2022-09-17T10:52:20.181Z,0.30
2022-09-17T10:55:18.322Z,0.30
2022-09-17T10:58:04.595Z,0.50
2022-09-17T11:00:47.976Z,0.73
2022-09-17T11:03:23.162Z,0.52
2022-09-17T11:08:30.175Z,0.35
2022-09-17T11:11:34.107Z,0.50
2022-09-17T11:14:45.363Z,0.57
2022-09-17T11:17:39.749Z,0.47
2022-09-17T11:20:25.209Z,0.75
2022-09-17T11:23:19.750Z,0.32
2022-09-17T11:26:08.340Z,0.40
2022-09-17T11:28:53.082Z,0.30
2022-09-17T11:31:38.719Z,0.40
2022-09-17T11:36:57.170Z,0.40
2022-09-17T11:39:35.272Z,0.30
2022-09-17T11:42:07.986Z,0.20
2022-09-17T11:44:45.813Z,0.38
2022-09-17T11:47:33.803Z,0.38
2022-09-17T11:50:04.859Z,0.80
2022-09-17T11:52:42.638Z,0.68
2022-09-17T11:55:19.562Z,0.55
2022-09-17T11:57:49.348Z,0.40
2022-09-17T12:00:18.761Z,0.70
2022-09-17T12:02:58.509Z,0.50
2022-09-17T12:05:43.479Z,0.20
2022-09-17T12:08:42.572Z,0.40
2022-09-17T12:11:20.875Z,0.52
2022-09-17T12:13:54.554Z,0.40
2022-09-17T12:16:43.810Z,0.22
2022-09-17T12:19:35.587Z,0.50
2022-09-17T12:22:10.822Z,0.93
2022-09-17T12:27:23.194Z,0.20
2022-09-17T12:30:08.515Z,0.55
2022-09-17T12:32:53.402Z,0.32
2022-09-17T12:35:23.005Z,0.70
2022-09-17T12:38:19.647Z,0.40
2022-09-17T12:40:55.391Z,0.35
2022-09-17T12:43:28.907Z,0.43
2022-09-17T12:46:21.139Z,0.38
2022-09-17T12:49:15.335Z,0.57
2022-09-17T12:51:51.036Z,0.40
2022-09-17T12:54:35.711Z,0.38
2022-09-17T12:57:17.774Z,0.65
2022-09-17T13:00:12.629Z,0.65
2022-09-17T13:03:03.441Z,0.57
2022-09-17T13:05:52.056Z,0.50
2022-09-17T13:08:44.583Z,0.55
2022-09-17T13:11:20.178Z,0.40
2022-09-17T13:13:59.202Z,0.40
2022-09-17T13:16:40.783Z,0.50
2022-09-17T13:19:17.298Z,0.47
2022-09-17T13:21:51.332Z,0.45
2022-09-17T13:24:20.121Z,0.43
2022-09-17T13:26:47.370Z,0.68
2022-09-17T13:29:48.932Z,0.70
2022-09-17T13:32:33.729Z,0.50
2022-09-17T13:35:18.084Z,0.70
2022-09-17T13:37:54.859Z,0.52
2022-09-17T13:40:27.899Z,0.77
2022-09-17T13:42:57.487Z,0.80
2022-09-17T13:45:25.488Z,0.52
2022-09-17T13:47:56.057Z,0.40
2022-09-17T13:50:30.628Z,0.30
2022-09-17T13:52:59.398Z,0.55
2022-09-17T13:55:50.567Z,0.77
2022-09-17T13:58:19.867Z,0.65
2022-09-17T14:00:47.790Z,0.40
2022-09-17T14:03:37.683Z,0.52
2022-09-17T14:06:18.785Z,0.60
2022-09-17T14:08:45.503Z,0.60
2022-09-17T14:11:24.124Z,0.57
2022-09-17T14:13:51.882Z,0.50
2022-09-17T14:16:46.140Z,0.70
2022-09-17T14:19:20.471Z,0.63
2022-09-17T14:21:57.805Z,0.93
2022-09-17T14:24:26.913Z,0.90
2022-09-17T14:26:53.401Z,0.60
2022-09-17T14:29:32.124Z,0.68
2022-09-17T14:31:58.747Z,1.10
2022-09-17T14:34:27.299Z,0.60
2022-09-17T14:36:55.461Z,0.40
2022-09-17T14:39:25.219Z,0.80
2022-09-17T14:41:54.266Z,0.50
2022-09-17T14:44:24.482Z,0.90
2022-09-17T14:47:02.403Z,1.48
2022-09-17T14:49:33.369Z,0.40
2022-09-17T14:52:01.935Z,0.45
2022-09-17T14:54:36.342Z,0.50
2022-09-17T14:57:11.887Z,0.57
2022-09-17T15:02:20.318Z,0.70
2022-09-17T15:04:46.849Z,0.70
2022-09-17T15:07:13.524Z,0.80
2022-09-17T15:09:40.336Z,0.47
2022-09-17T15:12:07.904Z,0.60
2022-09-17T15:14:39.994Z,0.60
2022-09-17T15:17:07.234Z,0.68
2022-09-17T15:19:38.445Z,0.52
2022-09-17T15:22:13.115Z,0.47
2022-09-17T15:24:50.426Z,0.50
2022-09-17T15:27:25.752Z,0.60
2022-09-17T15:30:03.600Z,0.60
2022-09-17T15:32:31.930Z,0.70
2022-09-17T15:35:13.651Z,0.73
2022-09-17T15:38:11.641Z,0.60
2022-09-17T15:40:39.504Z,0.60
2022-09-17T15:43:21.827Z,0.55
2022-09-17T15:45:48.404Z,1.00
2022-09-17T15:48:28.203Z,0.93
2022-09-17T15:50:57.063Z,1.50
2022-09-17T15:53:26.686Z,0.65
2022-09-17T15:56:05.399Z,0.70
2022-09-17T15:58:50.986Z,0.60
2022-09-17T16:03:44.531Z,0.60
2022-09-17T16:06:20.162Z,0.80
2022-09-17T16:08:49.504Z,1.02
2022-09-17T16:11:27.014Z,0.70
2022-09-17T16:13:55.414Z,2.25
2022-09-17T16:16:24.455Z,0.98
2022-09-17T16:18:51.371Z,1.23
2022-09-17T16:21:19.430Z,1.10
2022-09-17T16:23:46.647Z,0.88
2022-09-17T16:26:19.518Z,1.45
2022-09-17T16:28:48.303Z,0.90
2022-09-17T16:31:15.269Z,0.73
2022-09-17T16:33:42.095Z,0.52
2022-09-17T16:36:08.606Z,0.57
2022-09-17T16:38:36.248Z,0.70
2022-09-17T16:41:05.781Z,0.80
2022-09-17T16:43:33.743Z,1.20
2022-09-17T16:46:01.346Z,0.70
2022-09-17T16:48:27.914Z,1.02
2022-09-17T16:50:54.446Z,0.82
2022-09-17T16:53:21.012Z,0.90
2022-09-17T16:55:47.587Z,0.75
2022-09-17T16:58:14.175Z,1.02
2022-09-17T17:00:44.333Z,1.45
2022-09-17T17:03:13.341Z,0.70
2022-09-17T17:05:40.771Z,1.15
2022-09-17T17:08:08.862Z,0.90
2022-09-17T17:10:38.042Z,1.48
2022-09-17T17:13:05.327Z,0.95
2022-09-17T17:15:32.147Z,0.95
2022-09-17T17:17:59.139Z,1.10
2022-09-17T17:20:25.686Z,1.02
2022-09-17T17:22:52.427Z,1.15
2022-09-17T17:25:19.328Z,0.95
2022-09-17T17:27:45.852Z,0.70
2022-09-17T17:30:17.537Z,1.10
2022-09-17T17:32:49.223Z,1.10
2022-09-17T17:35:16.045Z,1.02
2022-09-17T17:37:42.881Z,1.40
2022-09-17T17:40:10.475Z,1.20
2022-09-17T17:42:43.904Z,1.00
2022-09-17T17:45:11.211Z,1.00
2022-09-17T17:47:37.791Z,0.80
2022-09-17T17:50:05.175Z,0.80
2022-09-17T17:52:32.004Z,0.80
2022-09-17T17:54:58.534Z,1.00
2022-09-17T17:57:25.262Z,0.77
2022-09-17T17:59:51.794Z,1.10
2022-09-17T18:02:18.395Z,0.60
2022-09-17T18:04:45.070Z,0.93
2022-09-17T18:07:11.646Z,0.90
2022-09-17T18:09:38.151Z,1.00
2022-09-17T18:12:04.926Z,0.88
2022-09-17T18:14:31.427Z,1.05
2022-09-17T18:16:58.008Z,0.70
2022-09-17T18:19:24.565Z,0.85
2022-09-17T18:21:53.695Z,0.82
2022-09-17T18:24:20.309Z,0.93
2022-09-17T18:26:47.578Z,0.93
2022-09-17T18:29:14.236Z,0.80
2022-09-17T18:31:40.866Z,0.98
2022-09-17T18:34:11.306Z,0.55
2022-09-17T18:36:39.554Z,0.70
2022-09-17T18:39:52.883Z,1.02
2022-09-17T18:41:54.862Z,1.00
2022-09-17T18:44:22.564Z,1.20
2022-09-17T18:46:50.198Z,1.17
2022-09-17T18:49:17.271Z,2.67
2022-09-17T18:51:43.794Z,1.08
2022-09-17T18:54:12.722Z,1.08
2022-09-17T18:56:41.877Z,1.67
2022-09-17T18:59:08.844Z,1.10
2022-09-17T19:01:35.579Z,1.25
2022-09-17T19:04:03.306Z,1.25
2022-09-17T19:06:32.351Z,1.48
2022-09-17T19:09:01.150Z,1.00
2022-09-17T19:11:27.968Z,1.00
2022-09-17T19:13:54.970Z,1.50
2022-09-17T19:16:21.645Z,1.50
2022-09-17T19:18:48.370Z,1.63
2022-09-17T19:21:18.171Z,1.60
2022-09-17T19:23:46.863Z,1.55
2022-09-17T19:26:18.602Z,1.40
2022-09-17T19:28:45.193Z,1.27
2022-09-17T19:31:14.525Z,1.20
2022-09-17T19:33:41.527Z,1.45
2022-09-17T19:36:12.221Z,1.52
2022-09-17T19:38:39.178Z,1.67
2022-09-17T19:41:09.707Z,1.80
2022-09-17T19:43:37.027Z,1.40
2022-09-17T19:46:06.243Z,1.38
2022-09-17T19:48:34.018Z,1.67
2022-09-17T19:51:00.571Z,1.45
2022-09-17T19:53:27.222Z,1.85
2022-09-17T19:55:54.256Z,2.33
2022-09-17T19:58:22.384Z,2.20
2022-09-17T20:00:55.086Z,2.42
2022-09-17T20:03:22.088Z,2.13
2022-09-17T20:05:48.675Z,2.17
2022-09-17T20:08:15.204Z,1.95
2022-09-17T20:10:41.766Z,2.10
2022-09-17T20:13:08.359Z,2.33
2022-09-17T20:15:36.382Z,1.95
2022-09-17T20:18:03.389Z,2.25
2022-09-17T20:20:30.091Z,3.20
2022-09-17T20:22:56.627Z,2.15
2022-09-17T20:25:25.585Z,2.10
2022-09-17T20:27:53.188Z,2.00
2022-09-17T20:30:19.816Z,2.17
2022-09-17T20:32:46.353Z,1.88
2022-09-17T20:35:12.978Z,2.35
2022-09-17T20:40:26.532Z,2.35
2022-09-17T20:42:53.062Z,2.67
2022-09-17T20:45:19.667Z,2.20
2022-09-17T20:47:51.146Z,2.85
2022-09-17T20:50:17.718Z,2.25
2022-09-17T20:52:44.292Z,2.05
2022-09-17T20:55:10.847Z,2.58
2022-09-17T20:57:37.823Z,2.70
2022-09-17T21:00:17.607Z,2.28
2022-09-17T21:02:50.438Z,2.45
2022-09-17T21:05:18.494Z,2.40
2022-09-17T21:07:45.500Z,2.20
2022-09-17T21:10:13.502Z,2.15
2022-09-17T21:12:40.067Z,2.25
2022-09-17T21:15:07.033Z,2.00
2022-09-17T21:17:34.074Z,2.75
2022-09-17T21:20:00.707Z,2.05
2022-09-17T21:22:27.263Z,2.55
2022-09-17T21:24:53.778Z,2.55
2022-09-17T21:27:20.345Z,2.20
2022-09-17T21:29:46.880Z,2.30
2022-09-17T21:32:13.385Z,1.90
2022-09-17T21:34:40.326Z,2.17
2022-09-17T21:37:06.832Z,1.77
2022-09-17T21:39:35.100Z,2.10
2022-09-17T21:42:01.778Z,2.05
2022-09-17T21:44:28.337Z,1.85
2022-09-17T21:46:57.595Z,1.67
2022-09-17T21:49:25.098Z,1.92
2022-09-17T21:51:51.739Z,1.80
2022-09-17T21:54:18.641Z,3.00
2022-09-17T21:56:46.434Z,1.70
2022-09-17T21:59:15.346Z,1.50
2022-09-17T22:01:46.420Z,2.63
2022-09-17T22:04:15.921Z,1.40
2022-09-17T22:06:43.086Z,1.50
2022-09-17T22:09:22.218Z,1.48
2022-09-17T22:11:49.441Z,1.60
2022-09-17T22:14:21.555Z,1.65
2022-09-17T22:16:53.625Z,1.38
2022-09-17T22:19:21.784Z,1.60
2022-09-17T22:21:51.346Z,1.83
2022-09-17T22:24:19.937Z,1.80
2022-09-17T22:26:54.131Z,1.50
2022-09-17T22:29:23.074Z,1.23
2022-09-17T22:31:49.731Z,1.40
2022-09-17T22:34:18.999Z,1.60
2022-09-17T22:36:45.947Z,1.60
2022-09-17T22:39:12.990Z,1.40
2022-09-17T22:41:45.738Z,1.60
2022-09-17T22:44:15.740Z,1.30
2022-09-17T22:46:42.808Z,1.40
2022-09-17T22:49:10.852Z,1.20
2022-09-17T22:51:38.298Z,1.60
2022-09-17T22:54:05.775Z,1.23
2022-09-17T22:56:34.167Z,1.10
2022-09-17T22:59:00.727Z,1.38
2022-09-17T23:01:31.257Z,1.95
2022-09-17T23:03:59.020Z,1.58
2022-09-17T23:06:28.364Z,1.60
2022-09-17T23:08:55.769Z,1.67
2022-09-17T23:11:33.801Z,1.50
2022-09-17T23:14:03.154Z,1.48
2022-09-17T23:16:34.983Z,1.17
2022-09-17T23:19:01.505Z,1.85
2022-09-17T23:21:28.039Z,1.15
2022-09-17T23:23:54.641Z,1.50
2022-09-17T23:26:23.815Z,1.10
2022-09-17T23:28:51.087Z,1.35
2022-09-17T23:31:23.210Z,1.35
2022-09-17T23:33:50.331Z,1.25
2022-09-17T23:36:19.774Z,1.88
2022-09-17T23:38:48.746Z,1.17
2022-09-17T23:41:30.403Z,1.33
2022-09-17T23:43:59.954Z,1.33
2022-09-17T23:46:28.925Z,1.45
2022-09-17T23:48:55.608Z,0.95
2022-09-17T23:51:24.269Z,1.40
2022-09-17T23:53:51.255Z,1.30
2022-09-17T23:56:21.428Z,1.20
2022-09-17T23:58:49.664Z,1.60
